Time;durP1;ratioP1;P1;durP2;ratioP2;P2;SDS_P1;SDS_P2;PMS_P1;PMS_P2;Temp;Humidity;BMP_temperature;BMP_pressure;BME280_temperature;BME280_humidity;BME280_pressure;Samples;Min_cycle;Max_cycle;Signal;HPM_P1;HPM_P2
2021/10/25 00:01:16;;;;;;;6.97;6.35;;;1.40;99.90;;;;;;4937955;29;20031;-72
2021/10/25 00:03:43;;;;;;;7.57;6.63;;;1.40;99.90;;;;;;4938006;29;20044;-72
2021/10/25 00:06:09;;;;;;;8.50;7.70;;;1.30;99.90;;;;;;4937682;29;20035;-72
2021/10/25 00:08:35;;;;;;;9.07;8.20;;;1.30;99.90;;;;;;4937360;29;20043;-72
2021/10/25 00:11:02;;;;;;;11.07;7.20;;;1.30;99.90;;;;;;4937372;29;20354;-72
2021/10/25 00:13:30;;;;;;;8.75;7.88;;;1.50;99.90;;;;;;4937719;29;20183;-72
2021/10/25 00:15:56;;;;;;;8.27;7.40;;;1.40;99.90;;;;;;4936933;29;20052;-73
2021/10/25 00:18:23;;;;;;;11.57;7.82;;;1.30;99.90;;;;;;4937086;29;20043;-72
2021/10/25 00:20:49;;;;;;;9.63;8.48;;;1.40;99.90;;;;;;4937076;29;20040;-72
2021/10/25 00:23:15;;;;;;;10.32;9.32;;;1.40;99.90;;;;;;4936931;29;20413;-72
2021/10/25 00:25:41;;;;;;;10.00;8.48;;;1.40;99.90;;;;;;4936808;29;20035;-72
2021/10/25 00:28:08;;;;;;;10.13;9.15;;;1.30;99.90;;;;;;4936279;29;20401;-72
2021/10/25 00:30:34;;;;;;;7.03;6.43;;;1.30;99.90;;;;;;4937447;29;20043;-72
2021/10/25 00:33:00;;;;;;;9.52;7.57;;;1.20;99.90;;;;;;4936752;29;20054;-72
2021/10/25 00:35:26;;;;;;;7.55;6.93;;;1.20;99.90;;;;;;4940414;29;20031;-73
2021/10/25 00:37:53;;;;;;;12.07;7.90;;;1.30;99.90;;;;;;4947242;29;20031;-74
2021/10/25 00:40:20;;;;;;;9.20;8.23;;;1.20;99.90;;;;;;4951671;28;20040;-72
2021/10/25 00:42:46;;;;;;;7.85;7.05;;;1.10;99.90;;;;;;4936528;29;20035;-72
2021/10/25 00:45:12;;;;;;;8.35;7.63;;;1.10;99.90;;;;;;4937395;29;20035;-72
2021/10/25 00:47:39;;;;;;;13.13;7.65;;;1.10;99.90;;;;;;4936811;29;20042;-72
2021/10/25 00:50:05;;;;;;;9.77;8.98;;;1.10;99.90;;;;;;4950955;28;20413;-72
2021/10/25 00:52:32;;;;;;;8.65;7.88;;;1.00;99.90;;;;;;4964854;28;20051;-72
2021/10/25 00:54:58;;;;;;;9.80;7.35;;;1.10;99.90;;;;;;4936583;29;20462;-72
2021/10/25 00:57:28;;;;;;;8.30;7.50;;;1.20;99.90;;;;;;4937042;29;20047;-72
2021/10/25 00:59:55;;;;;;;8.55;7.75;;;1.20;99.90;;;;;;4936308;29;20047;-72
2021/10/25 01:02:21;;;;;;;10.50;7.85;;;1.20;99.90;;;;;;4936282;29;20036;-72
2021/10/25 01:04:49;;;;;;;8.57;7.68;;;1.10;99.90;;;;;;4936473;29;20055;-72
2021/10/25 01:07:15;;;;;;;8.40;7.53;;;1.00;99.90;;;;;;4936677;29;20028;-72
2021/10/25 01:09:42;;;;;;;9.50;8.35;;;0.90;99.90;;;;;;4945436;29;20396;-72
2021/10/25 01:12:09;;;;;;;8.35;7.55;;;0.90;99.90;;;;;;4935101;29;20034;-72
2021/10/25 01:14:35;;;;;;;9.52;8.50;;;0.90;99.90;;;;;;4935206;29;20373;-73
2021/10/25 01:17:02;;;;;;;11.65;7.88;;;1.00;99.90;;;;;;4946518;29;20054;-73
2021/10/25 01:19:28;;;;;;;10.30;9.32;;;0.90;99.90;;;;;;4942021;29;20044;-72
2021/10/25 01:21:54;;;;;;;10.48;9.52;;;1.00;99.90;;;;;;4950349;28;20078;-72
2021/10/25 01:24:21;;;;;;;10.77;9.68;;;1.00;99.90;;;;;;4950975;28;20043;-73
2021/10/25 01:26:47;;;;;;;9.93;8.40;;;1.00;99.90;;;;;;4936613;29;20043;-72
2021/10/25 01:29:18;;;;;;;11.02;9.27;;;0.80;99.90;;;;;;4936364;29;20091;-72
2021/10/25 01:31:46;;;;;;;11.02;8.98;;;0.90;99.90;;;;;;4950518;28;20405;-72
2021/10/25 01:34:13;;;;;;;8.80;7.90;;;1.00;99.90;;;;;;4950467;28;20028;-72
2021/10/25 01:36:43;;;;;;;10.90;9.07;;;0.90;99.90;;;;;;4950672;28;20061;-72
2021/10/25 01:39:09;;;;;;;9.23;8.32;;;0.90;99.90;;;;;;4950448;28;20393;-72
2021/10/25 01:41:37;;;;;;;8.05;7.30;;;1.00;99.90;;;;;;4950525;28;20347;-72
2021/10/25 01:44:11;;;;;;;8.38;7.57;;;1.00;99.90;;;;;;4950043;28;20202;-72
2021/10/25 01:46:40;;;;;;;11.25;7.93;;;1.00;99.90;;;;;;4950127;29;20055;-72
2021/10/25 01:49:07;;;;;;;8.82;7.63;;;0.90;99.90;;;;;;4933936;29;20373;-72
2021/10/25 01:51:35;;;;;;;7.10;6.40;;;0.90;99.90;;;;;;4949934;28;20039;-72
2021/10/25 01:54:02;;;;;;;7.90;7.20;;;0.90;99.90;;;;;;4933949;29;20054;-72
2021/10/25 01:56:29;;;;;;;8.52;7.70;;;0.80;99.90;;;;;;4934840;29;20043;-72
2021/10/25 01:58:57;;;;;;;7.75;6.72;;;0.70;99.90;;;;;;4949587;28;20373;-72
2021/10/25 02:01:24;;;;;;;7.65;6.95;;;0.70;99.90;;;;;;4950339;28;20044;-72
2021/10/25 02:03:51;;;;;;;8.60;7.60;;;0.70;99.90;;;;;;4933928;29;20043;-72
2021/10/25 02:06:22;;;;;;;7.43;6.72;;;0.80;99.90;;;;;;4949500;29;20066;-72
2021/10/25 02:08:49;;;;;;;7.85;7.25;;;0.70;99.90;;;;;;4949284;28;20043;-72
2021/10/25 02:11:18;;;;;;;14.93;7.72;;;0.50;99.90;;;;;;4949359;28;20043;-72
2021/10/25 02:13:52;;;;;;;12.35;8.95;;;0.40;99.90;;;;;;4949266;28;20040;-72
2021/10/25 02:16:19;;;;;;;9.10;8.18;;;0.40;99.90;;;;;;4949234;28;20044;-72
2021/10/25 02:18:45;;;;;;;10.02;9.13;;;0.40;99.90;;;;;;4934692;29;20039;-72
2021/10/25 02:21:13;;;;;;;8.50;7.60;;;0.40;99.90;;;;;;4934803;29;20042;-72
2021/10/25 02:23:40;;;;;;;9.38;8.55;;;0.30;99.90;;;;;;4933531;29;20055;-72
2021/10/25 02:26:06;;;;;;;13.35;7.68;;;0.30;99.90;;;;;;4958952;28;20397;-72
2021/10/25 02:28:33;;;;;;;9.75;8.18;;;0.30;99.90;;;;;;4946278;29;20039;-72
2021/10/25 02:31:00;;;;;;;10.52;9.52;;;0.30;99.90;;;;;;4949904;28;20044;-72
2021/10/25 02:33:32;;;;;;;9.98;9.05;;;0.30;99.90;;;;;;4949131;28;20044;-72
2021/10/25 02:35:58;;;;;;;10.88;8.50;;;0.30;99.90;;;;;;4949211;28;20046;-72
2021/10/25 02:38:27;;;;;;;10.80;9.73;;;0.30;99.90;;;;;;4933500;29;20492;-72
2021/10/25 02:40:56;;;;;;;15.23;9.15;;;0.40;99.90;;;;;;4934183;29;20036;-72
2021/10/25 02:43:22;;;;;;;12.73;8.15;;;0.30;99.90;;;;;;4949182;28;20047;-72
2021/10/25 02:45:49;;;;;;;17.17;9.20;;;0.20;99.90;;;;;;4950154;28;20051;-72
2021/10/25 02:48:15;;;;;;;10.70;8.95;;;0.20;99.90;;;;;;4935544;29;20042;-72
2021/10/25 02:50:42;;;;;;;11.35;8.43;;;0.20;99.90;;;;;;4948960;28;20040;-72
2021/10/25 02:53:09;;;;;;;12.18;9.50;;;0.10;99.90;;;;;;4948683;28;20044;-69
2021/10/25 02:55:36;;;;;;;11.02;10.02;;;0.10;99.90;;;;;;4949054;28;20055;-71
2021/10/25 02:58:03;;;;;;;10.63;9.60;;;0.10;99.90;;;;;;4934469;29;20039;-73
2021/10/25 03:00:30;;;;;;;8.98;7.57;;;0.10;99.90;;;;;;4934603;29;20028;-73
2021/10/25 03:02:59;;;;;;;9.80;8.73;;;0.10;99.90;;;;;;4933062;29;20051;-73
2021/10/25 03:05:25;;;;;;;12.50;10.65;;;0.10;99.90;;;;;;4949157;28;20055;-73
2021/10/25 03:07:52;;;;;;;13.40;10.25;;;0.10;99.90;;;;;;4948138;28;20047;-73
2021/10/25 03:10:18;;;;;;;13.05;11.20;;;0.10;99.90;;;;;;4933585;29;20054;-71
2021/10/25 03:12:47;;;;;;;11.43;10.23;;;0.00;99.90;;;;;;4951287;28;20040;-71
2021/10/25 03:15:13;;;;;;;12.75;11.45;;;0.00;99.90;;;;;;4944918;29;20130;-73
2021/10/25 03:17:41;;;;;;;15.82;11.50;;;-0.10;99.90;;;;;;4948548;28;20048;-71
2021/10/25 03:20:17;;;;;;;11.55;10.45;;;-0.10;99.90;;;;;;4948283;28;20150;-70
2021/10/25 03:22:47;;;;;;;10.50;9.60;;;-0.10;99.90;;;;;;4951755;28;20042;-73
2021/10/25 03:25:16;;;;;;;10.27;8.82;;;-0.10;99.90;;;;;;4960800;28;20413;-71
2021/10/25 03:27:44;;;;;;;8.57;7.82;;;-0.10;99.90;;;;;;4934704;29;20032;-71
2021/10/25 03:30:12;;;;;;;9.38;8.45;;;-0.20;99.90;;;;;;4934720;29;20378;-71
2021/10/25 03:32:42;;;;;;;10.43;9.40;;;-0.10;99.90;;;;;;4948952;29;20047;-72
2021/10/25 03:35:28;;;;;;;10.55;9.43;;;-0.20;99.90;;;;;;4934648;29;20457;-73
2021/10/25 03:37:55;;;;;;;14.10;10.27;;;-0.30;99.90;;;;;;4947966;28;20054;-71
2021/10/25 03:40:22;;;;;;;7.97;7.28;;;-0.30;99.90;;;;;;4949240;28;20363;-71
2021/10/25 03:42:52;;;;;;;9.30;8.40;;;-0.40;99.90;;;;;;4948376;28;20044;-74
2021/10/25 03:48:37;;;;;;;23.40;9.40;;;-0.40;99.90;;;;;;4948657;28;20055;-71
2021/10/25 03:50:34;;;;;;;10.35;9.27;;;-0.50;99.90;;;;;;4956734;28;20051;-71
2021/10/25 03:53:17;;;;;;;12.27;11.18;;;-0.40;99.90;;;;;;4948780;28;20055;-71
2021/10/25 03:56:05;;;;;;;11.23;9.98;;;-0.40;99.90;;;;;;4933138;29;20044;-70
2021/10/25 04:28:36;;;;;;;14.45;13.05;;;-0.40;99.90;;;;;;4951627;28;20054;-71
2021/10/25 04:31:03;;;;;;;16.05;13.20;;;-0.40;99.90;;;;;;4935473;29;20057;-73
2021/10/25 04:33:52;;;;;;;14.30;12.80;;;-0.10;99.90;;;;;;4937176;29;20139;-72
2021/10/25 04:36:37;;;;;;;13.63;12.27;;;0.00;99.90;;;;;;4948997;29;20050;-71
2021/10/25 04:39:12;;;;;;;16.33;13.40;;;-0.10;99.90;;;;;;4951602;28;20051;-72
2021/10/25 04:41:40;;;;;;;14.20;12.57;;;-0.10;99.90;;;;;;4952337;28;20288;-71
2021/10/25 04:44:08;;;;;;;16.88;11.48;;;-0.10;99.90;;;;;;4951594;28;20116;-72
2021/10/25 04:46:35;;;;;;;13.25;11.98;;;-0.10;99.90;;;;;;4951336;28;20043;-72
2021/10/25 04:49:01;;;;;;;13.38;11.82;;;-0.10;99.90;;;;;;4935545;29;20059;-72
2021/10/25 04:51:41;;;;;;;12.57;11.27;;;-0.10;99.90;;;;;;4935851;29;20059;-71
2021/10/25 04:54:23;;;;;;;13.52;12.02;;;-0.10;99.90;;;;;;4951476;28;20043;-72
2021/10/25 04:56:52;;;;;;;17.23;15.57;;;-0.20;99.90;;;;;;4938449;29;20051;-72
2021/10/25 04:59:18;;;;;;;18.83;17.08;;;-0.10;99.90;;;;;;4936990;29;20031;-72
2021/10/25 05:01:45;;;;;;;17.48;15.70;;;-0.10;99.90;;;;;;4951685;28;20047;-72
2021/10/25 05:04:11;;;;;;;14.38;12.93;;;-0.10;99.90;;;;;;4934787;29;20043;-72
2021/10/25 05:06:38;;;;;;;17.63;15.43;;;-0.20;99.90;;;;;;4951158;28;20044;-72
2021/10/25 05:09:04;;;;;;;16.98;15.43;;;-0.20;99.90;;;;;;4935709;29;20059;-72
2021/10/25 05:11:31;;;;;;;32.80;14.85;;;-0.10;99.90;;;;;;4951073;28;20051;-72
2021/10/25 05:13:58;;;;;;;18.80;16.25;;;-0.10;99.90;;;;;;4950380;28;20477;-72
2021/10/25 05:16:25;;;;;;;18.17;16.38;;;-0.10;99.90;;;;;;4951428;29;20051;-72
2021/10/25 05:19:05;;;;;;;18.83;17.10;;;-0.20;99.90;;;;;;4950157;29;20135;-72
2021/10/25 05:21:31;;;;;;;17.38;15.77;;;-0.30;99.90;;;;;;4950426;29;20550;-71
2021/10/25 05:23:58;;;;;;;22.88;16.20;;;-0.30;99.90;;;;;;4935725;29;20046;-72
2021/10/25 05:26:24;;;;;;;15.63;13.60;;;-0.30;99.90;;;;;;4936404;29;20036;-72
2021/10/25 05:28:50;;;;;;;20.10;15.15;;;-0.20;99.90;;;;;;4936232;29;20056;-72
2021/10/25 05:31:17;;;;;;;16.23;14.82;;;-0.10;99.90;;;;;;4936391;29;20074;-72
2021/10/25 05:33:44;;;;;;;17.63;15.07;;;-0.10;99.90;;;;;;4950991;28;20050;-73
2021/10/25 05:36:10;;;;;;;19.50;16.38;;;0.00;99.90;;;;;;4936003;29;20028;-73
2021/10/25 05:38:37;;;;;;;19.13;17.02;;;0.00;99.90;;;;;;4936079;29;20043;-73
2021/10/25 05:41:09;;;;;;;16.85;15.40;;;-0.10;99.90;;;;;;4936014;29;20500;-73
2021/10/25 05:43:37;;;;;;;17.70;15.88;;;-0.10;99.90;;;;;;4934849;29;20508;-73
2021/10/25 05:46:03;;;;;;;17.60;15.93;;;-0.20;99.90;;;;;;4950584;28;20040;-72
2021/10/25 05:48:30;;;;;;;18.73;16.88;;;-0.20;99.90;;;;;;4953782;28;20064;-72
2021/10/25 05:50:59;;;;;;;18.70;14.70;;;-0.20;99.90;;;;;;4950794;28;20397;-72
2021/10/25 05:53:25;;;;;;;16.88;15.27;;;-0.20;99.90;;;;;;4950409;28;20047;-72
2021/10/25 05:55:53;;;;;;;13.75;12.55;;;-0.30;99.90;;;;;;4961943;28;20051;-75
2021/10/25 05:58:23;;;;;;;14.07;12.85;;;-0.30;99.90;;;;;;4946404;29;20050;-74
2021/10/25 06:00:57;;;;;;;13.20;12.10;;;-0.20;99.90;;;;;;4935827;29;20056;-75
2021/10/25 06:03:57;;;;;;;14.93;13.55;;;-0.20;99.90;;;;;;4949831;28;20047;-72
2021/10/25 06:06:24;;;;;;;15.20;13.40;;;-0.20;99.90;;;;;;4944427;29;20048;-72
2021/10/25 06:08:50;;;;;;;14.35;12.52;;;-0.20;99.90;;;;;;4934073;29;20047;-72
2021/10/25 06:11:20;;;;;;;13.40;12.23;;;-0.10;99.90;;;;;;4934083;29;20055;-73
2021/10/25 06:13:46;;;;;;;14.60;12.27;;;-0.10;99.90;;;;;;4950041;28;20040;-72
2021/10/25 06:16:19;;;;;;;15.48;13.95;;;-0.10;99.90;;;;;;4935220;29;20048;-73
2021/10/25 06:18:54;;;;;;;13.18;11.98;;;-0.10;99.90;;;;;;4950224;28;20059;-72
2021/10/25 06:21:21;;;;;;;12.75;11.55;;;0.00;99.90;;;;;;4951476;28;20058;-73
2021/10/25 06:23:48;;;;;;;14.55;12.65;;;-0.10;99.90;;;;;;4949845;28;20377;-72
2021/10/25 06:26:27;;;;;;;14.77;12.98;;;0.10;99.90;;;;;;4950170;28;20054;-72
2021/10/25 06:28:54;;;;;;;16.27;12.85;;;0.20;99.90;;;;;;4949629;29;20052;-73
2021/10/25 06:31:21;;;;;;;14.90;11.95;;;0.20;99.90;;;;;;4949711;28;20397;-72
2021/10/25 06:34:03;;;;;;;16.15;14.23;;;0.20;99.90;;;;;;4941393;28;20039;-73
2021/10/25 06:36:34;;;;;;;11.00;9.97;;;0.20;99.90;;;;;;4935269;29;20050;-72
2021/10/25 06:39:13;;;;;;;18.13;15.90;;;0.30;99.90;;;;;;4949163;28;20055;-73
2021/10/25 06:41:47;;;;;;;31.15;28.42;;;0.40;99.90;;;;;;4949920;28;20511;-73
2021/10/25 06:44:21;;;;;;;16.25;14.68;;;0.40;99.90;;;;;;4949991;29;20051;-73
2021/10/25 06:46:48;;;;;;;17.40;15.60;;;0.40;99.90;;;;;;4918539;29;20040;-72
2021/10/25 06:49:17;;;;;;;15.98;14.40;;;0.50;99.90;;;;;;4949254;29;20543;-73
2021/10/25 06:51:43;;;;;;;17.02;14.88;;;0.60;99.90;;;;;;4949326;29;20050;-74
2021/10/25 06:54:11;;;;;;;14.77;13.43;;;0.70;99.90;;;;;;4951275;29;20047;-72
2021/10/25 06:56:38;;;;;;;34.45;30.88;;;0.70;99.90;;;;;;4942196;29;20047;-72
2021/10/25 06:59:04;;;;;;;22.17;18.95;;;0.80;99.90;;;;;;4949070;28;20047;-72
2021/10/25 07:01:33;;;;;;;12.82;11.63;;;0.90;99.90;;;;;;4949425;28;20054;-72
2021/10/25 07:04:00;;;;;;;12.18;10.70;;;0.90;99.90;;;;;;4934401;29;20508;-73
2021/10/25 07:06:34;;;;;;;11.95;10.52;;;1.00;99.90;;;;;;4967403;28;20507;-73
2021/10/25 07:09:03;;;;;;;13.52;11.80;;;1.10;99.90;;;;;;4948830;28;20062;-74
2021/10/25 07:11:31;;;;;;;13.32;12.13;;;1.20;99.90;;;;;;4934526;28;20035;-76
2021/10/25 07:13:58;;;;;;;11.90;10.82;;;1.20;99.90;;;;;;4935137;29;20028;-77
2021/10/25 07:19:41;;;;;;;16.95;11.63;;;1.60;99.90;;;;;;4932103;29;20070;-74
2021/10/25 08:07:08;;;;;;;7.22;6.53;;;4.20;99.90;;;;;;4950280;29;20453;-74
2021/10/25 08:09:59;;;;;;;7.18;6.35;;;3.90;99.90;;;;;;4942560;28;20055;-74
2021/10/25 08:12:29;;;;;;;8.25;7.40;;;4.10;99.90;;;;;;4952539;28;20496;-74
2021/10/25 08:15:04;;;;;;;6.95;6.28;;;4.20;99.90;;;;;;4938019;29;20039;-74
2021/10/25 08:20:26;;;;;;;8.73;6.93;;;4.60;99.90;;;;;;4945192;28;20492;-75
2021/10/25 08:22:53;;;;;;;9.07;7.30;;;5.00;99.90;;;;;;4942005;29;20052;-75
2021/10/25 08:25:21;;;;;;;8.05;7.22;;;5.30;99.90;;;;;;4948338;29;20047;-76
2021/10/25 08:27:57;;;;;;;7.57;6.88;;;6.20;99.90;;;;;;4935940;29;20059;-78
2021/10/25 08:30:26;;;;;;;7.28;6.05;;;6.70;99.90;;;;;;4952268;28;20052;-74
2021/10/25 08:33:45;;;;;;;10.40;6.30;;;7.40;99.90;;;;;;4936537;29;20047;-75
2021/10/25 08:35:53;;;;;;;9.02;7.45;;;7.80;96.70;;;;;;4951414;28;20047;-75
2021/10/25 08:41:49;;;;;;;8.77;7.97;;;8.40;92.40;;;;;;4951078;29;20405;-75
2021/10/25 08:44:16;;;;;;;10.77;8.90;;;8.50;92.40;;;;;;4959297;28;20047;-75
2021/10/25 08:46:50;;;;;;;10.35;9.20;;;8.70;91.70;;;;;;4954751;28;20039;-75
2021/10/25 08:49:18;;;;;;;11.52;8.68;;;8.90;91.60;;;;;;4951218;28;20078;-75
2021/10/25 08:51:45;;;;;;;9.63;8.38;;;9.30;91.30;;;;;;4952151;28;20492;-75
2021/10/25 08:54:11;;;;;;;9.90;8.27;;;9.80;90.50;;;;;;4951140;28;20043;-75
2021/10/25 08:56:39;;;;;;;12.50;8.45;;;10.70;88.20;;;;;;4963135;28;20043;-75
2021/10/25 08:59:14;;;;;;;7.35;6.65;;;11.50;84.80;;;;;;4943714;29;20043;-75
2021/10/25 09:01:42;;;;;;;6.47;5.80;;;11.90;82.00;;;;;;4945371;29;20051;-75
2021/10/25 09:04:19;;;;;;;5.70;4.63;;;12.70;79.90;;;;;;4943990;29;20043;-73
2021/10/25 09:06:58;;;;;;;5.97;5.38;;;12.90;75.60;;;;;;4949017;29;20035;-72
2021/10/25 09:09:27;;;;;;;5.85;5.35;;;11.90;78.30;;;;;;4962416;28;20070;-73
2021/10/25 09:12:05;;;;;;;7.35;6.03;;;11.60;79.40;;;;;;4949022;29;20047;-73
2021/10/25 09:14:42;;;;;;;7.80;5.82;;;11.10;81.30;;;;;;4949783;29;20405;-73
2021/10/25 09:17:10;;;;;;;6.30;5.78;;;11.00;81.90;;;;;;4960613;28;20035;-75
2021/10/25 09:19:46;;;;;;;6.22;5.63;;;11.10;81.70;;;;;;4946803;29;20489;-75
2021/10/25 09:22:16;;;;;;;6.80;5.47;;;11.00;80.80;;;;;;4944041;29;20058;-75
2021/10/25 09:24:54;;;;;;;8.02;6.00;;;10.90;82.20;;;;;;4951123;28;20082;-75
2021/10/25 09:27:42;;;;;;;7.05;6.35;;;10.90;81.70;;;;;;4951093;28;20497;-75
2021/10/25 09:30:21;;;;;;;6.43;5.78;;;10.80;82.20;;;;;;4972012;28;20062;-75
2021/10/25 09:32:48;;;;;;;5.93;5.35;;;10.60;82.60;;;;;;4945549;28;20047;-76
2021/10/25 09:35:38;;;;;;;7.80;6.50;;;10.40;83.40;;;;;;4948717;29;20042;-75
2021/10/25 09:38:25;;;;;;;9.48;6.75;;;10.50;84.50;;;;;;4947348;29;20044;-74
2021/10/25 09:41:30;;;;;;;7.50;6.75;;;10.60;83.80;;;;;;4943446;29;20044;-75
2021/10/25 09:49:14;;;;;;;9.23;6.07;;;11.00;82.00;;;;;;4969086;28;20059;-74
2021/10/25 09:51:56;;;;;;;8.05;6.50;;;11.20;82.20;;;;;;4950784;28;20054;-74
2021/10/25 09:54:28;;;;;;;7.38;6.50;;;11.30;82.10;;;;;;4936406;29;20039;-74
2021/10/25 09:59:52;;;;;;;12.65;6.60;;;11.30;80.90;;;;;;4935790;29;20043;-73
2021/10/25 10:02:40;;;;;;;8.23;7.32;;;11.10;80.10;;;;;;4936204;29;20042;-74
2021/10/25 10:05:10;;;;;;;21.83;8.68;;;11.10;81.20;;;;;;4951249;29;20524;-73
2021/10/25 10:07:39;;;;;;;8.13;7.32;;;11.30;80.90;;;;;;4950818;28;20047;-73
2021/10/25 10:10:21;;;;;;;8.88;6.80;;;11.40;79.60;;;;;;4949620;28;20113;-73
2021/10/25 10:12:53;;;;;;;7.18;6.47;;;11.60;79.20;;;;;;4950053;28;20044;-73
2021/10/25 10:15:27;;;;;;;9.48;6.78;;;11.60;79.10;;;;;;4935440;29;20031;-74
2021/10/25 10:18:08;;;;;;;7.05;6.47;;;11.60;79.30;;;;;;4915227;29;20040;-73
2021/10/25 10:21:00;;;;;;;6.38;5.70;;;11.50;79.10;;;;;;4916925;29;20054;-74
2021/10/25 10:23:27;;;;;;;13.82;6.97;;;11.70;80.00;;;;;;4915431;29;20052;-73
2021/10/25 10:26:05;;;;;;;7.65;6.53;;;11.80;78.50;;;;;;4914774;29;20047;-73
2021/10/25 10:28:50;;;;;;;13.05;8.30;;;12.00;78.70;;;;;;4914730;29;20052;-74
2021/10/25 10:31:24;;;;;;;7.70;6.95;;;12.00;78.80;;;;;;4898526;29;20486;-73
2021/10/25 10:34:17;;;;;;;6.13;5.53;;;12.10;77.60;;;;;;4924226;29;20516;-74
2021/10/25 10:36:55;;;;;;;9.32;6.93;;;12.20;77.30;;;;;;4915034;29;20346;-74
2021/10/25 10:39:33;;;;;;;7.30;5.80;;;12.20;76.30;;;;;;4914833;29;20060;-74
2021/10/25 10:42:28;;;;;;;6.75;5.85;;;12.40;77.00;;;;;;4918363;29;20272;-73
2021/10/25 10:45:17;;;;;;;8.38;5.40;;;12.30;76.10;;;;;;4924383;29;20032;-73
2021/10/25 10:47:55;;;;;;;7.28;6.15;;;12.50;75.80;;;;;;4912506;29;20040;-75
2021/10/25 10:50:28;;;;;;;6.45;5.72;;;12.70;75.60;;;;;;4928467;29;20043;-74
2021/10/25 10:56:22;;;;;;;10.18;5.60;;;13.10;73.60;;;;;;4892908;29;20406;-74
2021/10/25 10:59:05;;;;;;;7.85;5.50;;;13.10;73.10;;;;;;4927792;29;20504;-74
2021/10/25 11:01:32;;;;;;;5.32;4.43;;;13.20;72.50;;;;;;4919294;29;20036;-74
2021/10/25 11:04:01;;;;;;;6.93;3.85;;;13.10;72.40;;;;;;4927664;29;20043;-73
2021/10/25 11:06:35;;;;;;;4.95;4.45;;;13.20;71.70;;;;;;4920335;29;20470;-74
2021/10/25 11:09:12;;;;;;;5.10;4.25;;;13.10;72.60;;;;;;4932956;29;20050;-75
2021/10/25 11:11:44;;;;;;;10.23;4.88;;;13.20;72.10;;;;;;4918582;29;20032;-73
2021/10/25 11:14:16;;;;;;;11.95;4.75;;;13.30;70.60;;;;;;4919791;29;20382;-74
2021/10/25 11:17:02;;;;;;;11.02;3.50;;;13.20;70.90;;;;;;4929432;29;20063;-74
2021/10/25 11:19:29;;;;;;;7.90;5.25;;;13.40;72.30;;;;;;4946455;29;20047;-73
2021/10/25 11:21:57;;;;;;;7.38;3.42;;;13.40;70.20;;;;;;4941741;29;20039;-74
2021/10/25 11:24:24;;;;;;;5.22;3.90;;;13.30;72.00;;;;;;4949833;29;20039;-74
2021/10/25 11:26:56;;;;;;;5.43;3.58;;;13.50;71.10;;;;;;4974149;28;20150;-74
2021/10/25 11:29:27;;;;;;;4.63;4.13;;;13.60;69.90;;;;;;4938313;29;20046;-75
2021/10/25 11:31:59;;;;;;;6.38;3.75;;;13.60;69.40;;;;;;4952745;29;20046;-74
2021/10/25 11:34:29;;;;;;;8.43;4.30;;;13.70;68.40;;;;;;4938103;29;20032;-74
2021/10/25 11:36:59;;;;;;;4.95;3.28;;;13.90;68.60;;;;;;4938421;29;20035;-74
2021/10/25 11:39:43;;;;;;;4.80;3.60;;;14.10;67.90;;;;;;4937699;29;20042;-73
2021/10/25 11:42:12;;;;;;;6.65;4.18;;;13.90;66.50;;;;;;4938322;29;20358;-74
2021/10/25 11:44:41;;;;;;;9.30;3.83;;;14.10;68.00;;;;;;4938159;29;20028;-74
2021/10/25 11:47:29;;;;;;;5.28;3.78;;;14.10;66.30;;;;;;4952239;28;20036;-74
2021/10/25 11:50:13;;;;;;;6.20;3.20;;;14.10;66.90;;;;;;4942791;29;20503;-75
2021/10/25 11:52:44;;;;;;;3.47;3.17;;;14.40;65.90;;;;;;4940308;29;20061;-77
2021/10/25 11:55:15;;;;;;;5.05;3.22;;;14.30;65.60;;;;;;4937302;29;20095;-74
2021/10/25 11:57:49;;;;;;;3.38;3.15;;;14.40;65.70;;;;;;4937994;29;20035;-75
2021/10/25 12:00:24;;;;;;;4.38;3.97;;;14.40;65.60;;;;;;4949073;29;20035;-74
2021/10/25 12:03:11;;;;;;;4.43;3.55;;;14.40;65.60;;;;;;4942178;29;20104;-74
2021/10/25 12:05:39;;;;;;;4.88;4.13;;;14.50;65.90;;;;;;4954579;28;20377;-74
2021/10/25 12:08:08;;;;;;;8.13;4.13;;;14.70;65.40;;;;;;4948209;29;20035;-75
2021/10/25 12:10:36;;;;;;;5.60;4.13;;;14.80;64.80;;;;;;4951990;29;20369;-74
2021/10/25 12:13:07;;;;;;;12.10;4.10;;;14.80;64.70;;;;;;4945467;29;20042;-76
2021/10/25 12:15:36;;;;;;;3.97;3.50;;;14.70;63.80;;;;;;4949572;29;20384;-74
2021/10/25 12:18:07;;;;;;;4.63;3.38;;;14.60;64.30;;;;;;4945144;29;20035;-74
2021/10/25 12:20:36;;;;;;;19.77;13.27;;;14.70;64.30;;;;;;4950587;29;20042;-74
2021/10/25 12:23:07;;;;;;;9.70;7.65;;;14.80;65.40;;;;;;4949642;28;20054;-77
2021/10/25 12:25:36;;;;;;;19.02;11.07;;;15.00;63.90;;;;;;4948411;29;20043;-74
2021/10/25 12:28:16;;;;;;;7.15;4.25;;;14.90;63.90;;;;;;4949233;29;20046;-74
2021/10/25 12:30:43;;;;;;;12.47;7.40;;;14.90;63.50;;;;;;4951811;29;20046;-74
2021/10/25 12:33:12;;;;;;;25.05;18.67;;;15.00;63.50;;;;;;4949655;29;20038;-75
2021/10/25 12:35:56;;;;;;;13.85;8.98;;;15.20;64.00;;;;;;4950921;29;20028;-74
2021/10/25 12:38:23;;;;;;;28.20;14.52;;;15.20;63.00;;;;;;4950516;29;20494;-75
2021/10/25 12:40:52;;;;;;;21.80;14.00;;;15.10;63.40;;;;;;4952755;29;20023;-75
2021/10/25 12:43:20;;;;;;;6.35;4.95;;;15.20;63.60;;;;;;4950124;29;20469;-75
2021/10/25 12:46:07;;;;;;;47.75;36.70;;;15.10;63.30;;;;;;4948154;29;20027;-73
2021/10/25 12:48:53;;;;;;;870.45;561.10;;;15.00;63.50;;;;;;4943116;29;20050;-75
2021/10/25 12:51:22;;;;;;;99.95;54.65;;;14.80;63.80;;;;;;4941203;29;20047;-75
2021/10/25 12:53:51;;;;;;;21.70;17.55;;;14.90;64.70;;;;;;4953368;29;20023;-74
2021/10/25 12:56:30;;;;;;;40.03;29.60;;;15.00;64.00;;;;;;4936914;29;20032;-74
2021/10/25 12:59:05;;;;;;;39.80;30.23;;;15.20;64.00;;;;;;4937225;29;20149;-74
2021/10/25 13:01:32;;;;;;;195.48;141.90;;;15.30;63.40;;;;;;4935778;29;20429;-74
2021/10/25 13:03:59;;;;;;;23.40;16.95;;;15.40;62.80;;;;;;4945179;29;20032;-74
2021/10/25 13:06:29;;;;;;;74.80;51.35;;;15.50;62.80;;;;;;4939234;29;20492;-74
2021/10/25 13:09:06;;;;;;;46.70;33.43;;;15.60;62.50;;;;;;4937216;29;20035;-81
2021/10/25 13:11:33;;;;;;;62.55;36.67;;;15.60;62.30;;;;;;4937377;29;20039;-80
2021/10/25 13:13:59;;;;;;;56.72;36.05;;;15.60;62.80;;;;;;4937553;29;20039;-81
2021/10/25 13:16:46;;;;;;;71.15;50.08;;;15.50;61.40;;;;;;4937372;29;20047;-81
2021/10/25 13:19:14;;;;;;;102.35;64.07;;;15.40;62.20;;;;;;4938808;29;20055;-80
2021/10/25 13:21:41;;;;;;;26.50;18.00;;;15.40;61.70;;;;;;4942792;29;20039;-79
2021/10/25 13:24:08;;;;;;;123.22;72.20;;;15.20;62.30;;;;;;4936697;29;20047;-80
2021/10/25 13:26:35;;;;;;;293.65;191.98;;;15.30;62.70;;;;;;4936782;29;20397;-81
2021/10/25 13:29:02;;;;;;;57.95;32.90;;;15.40;62.30;;;;;;4936785;29;20393;-80
2021/10/25 13:31:29;;;;;;;13.95;8.88;;;15.30;62.40;;;;;;4936409;29;20043;-79
2021/10/25 13:33:55;;;;;;;86.43;56.65;;;15.40;62.30;;;;;;4940777;29;20484;-80
2021/10/25 13:36:21;;;;;;;43.92;30.40;;;15.40;62.70;;;;;;4946421;29;20035;-80
2021/10/25 13:38:48;;;;;;;13.93;10.25;;;15.50;62.80;;;;;;4936646;29;20039;-77
2021/10/25 13:41:15;;;;;;;75.88;50.33;;;15.50;62.60;;;;;;4934195;29;20103;-75
2021/10/25 13:43:42;;;;;;;28.40;18.00;;;15.50;62.80;;;;;;4936049;29;20036;-75
2021/10/25 13:46:08;;;;;;;37.30;25.48;;;15.60;62.20;;;;;;4942154;29;20038;-77
2021/10/25 13:48:34;;;;;;;12.43;9.32;;;15.60;61.90;;;;;;4967340;28;20408;-76
2021/10/25 13:51:00;;;;;;;65.45;48.50;;;15.60;62.80;;;;;;4965389;28;20492;-76
2021/10/25 13:53:29;;;;;;;32.00;21.17;;;15.60;62.00;;;;;;4976549;28;20043;-76
2021/10/25 13:55:58;;;;;;;16.77;15.02;;;15.60;62.30;;;;;;4975485;28;20055;-81
2021/10/25 13:58:25;;;;;;;11.80;6.30;;;15.60;62.50;;;;;;4960711;28;20649;-79
2021/10/25 14:00:51;;;;;;;19.15;12.07;;;15.50;62.10;;;;;;4962014;28;20042;-81
2021/10/25 14:03:17;;;;;;;5.43;4.32;;;15.50;62.60;;;;;;4945313;28;20051;-80
2021/10/25 14:05:44;;;;;;;34.35;19.13;;;15.60;63.40;;;;;;4936655;29;20381;-81
2021/10/25 14:08:10;;;;;;;7.32;4.05;;;15.70;62.90;;;;;;4935943;29;20043;-80
2021/10/25 14:10:42;;;;;;;173.10;128.40;;;15.50;62.90;;;;;;4950576;29;20039;-80
2021/10/25 14:13:14;;;;;;;13.52;8.90;;;15.50;63.00;;;;;;4935236;29;20035;-79
2021/10/25 14:15:49;;;;;;;12.57;8.93;;;15.40;63.10;;;;;;4935624;29;20036;-80
2021/10/25 14:18:15;;;;;;;12.73;8.77;;;15.50;63.70;;;;;;4935225;29;20040;-77
2021/10/25 14:20:42;;;;;;;41.88;32.17;;;15.40;62.90;;;;;;4935945;29;20488;-78
2021/10/25 14:23:11;;;;;;;37.85;25.45;;;15.40;63.70;;;;;;4935198;29;20488;-78
2021/10/25 14:25:38;;;;;;;26.63;19.13;;;15.30;63.50;;;;;;4935103;29;20393;-78
2021/10/25 14:28:04;;;;;;;16.27;12.30;;;15.40;63.60;;;;;;4941424;29;20035;-79
2021/10/25 14:30:32;;;;;;;17.60;11.30;;;15.50;63.20;;;;;;4946445;29;20465;-79
2021/10/25 14:32:58;;;;;;;33.05;21.35;;;15.50;63.20;;;;;;4935410;29;20038;-79
2021/10/25 14:35:26;;;;;;;6.38;4.78;;;15.50;63.20;;;;;;4935064;29;20027;-79
2021/10/25 14:37:54;;;;;;;12.65;9.68;;;15.40;62.40;;;;;;4935457;29;20300;-79